Time;durP1;ratioP1;P1;durP2;ratioP2;P2;SDS_P1;SDS_P2;PMS_P1;PMS_P2;Temp;Humidity;BMP_temperature;BMP_pressure;BME280_temperature;BME280_humidity;BME280_pressure;Samples;Min_cycle;Max_cycle;Signal;HPM_P1;HPM_P2
2023/12/21 00:00:31;;;;;;;1.70;1.00;;;;;;;-141.84;82.19;19551.69;5049769;28;20282;-53
2023/12/21 00:03:01;;;;;;;1.80;1.13;;;;;;;-141.84;84.06;20309.75;5049453;28;20795;-50
2023/12/21 00:05:30;;;;;;;1.40;0.80;;;;;;;-141.84;84.60;20903.34;5048875;28;20229;-51
2023/12/21 00:07:58;;;;;;;1.30;0.73;;;;;;;-141.84;85.06;21352.63;5048895;28;20240;-50
2023/12/21 00:10:27;;;;;;;0.80;0.80;;;;;;;-141.84;85.90;22324.59;5049711;28;20521;-54
2023/12/21 00:12:56;;;;;;;2.10;1.00;;;;;;;-141.84;86.82;24094.31;5050094;28;20221;-58
2023/12/21 00:15:24;;;;;;;1.63;1.00;;;;;;;-141.84;85.86;22157.84;5049786;28;20245;-55
2023/12/21 00:17:53;;;;;;;2.13;0.73;;;;;;;-141.84;86.83;24295.72;5048991;28;20225;-54
2023/12/21 00:20:23;;;;;;;2.70;0.90;;;;;;;-141.84;86.55;24307.94;5044479;28;20232;-51
2023/12/21 00:22:52;;;;;;;1.20;1.00;;;;;;;-141.84;86.75;23996.66;5049792;28;20309;-54
2023/12/21 00:25:20;;;;;;;0.80;0.80;;;;;;;-141.84;86.74;24515.50;5049779;28;20696;-52
2023/12/21 00:27:49;;;;;;;1.33;0.90;;;;;;;-141.84;88.10;28098.41;5049005;28;20229;-53
2023/12/21 00:30:17;;;;;;;2.20;0.80;;;;;;;-141.84;86.73;24411.72;5049313;28;20554;-55
2023/12/21 00:32:46;;;;;;;1.00;0.90;;;;;;;-141.84;87.28;25655.16;5049439;28;20225;-54
2023/12/21 00:35:15;;;;;;;2.80;1.10;;;;;;;-141.84;85.89;22969.34;5047124;28;20312;-57
2023/12/21 00:37:45;;;;;;;1.43;0.90;;;;;;;-141.84;85.78;22495.44;5047925;28;20229;-55
2023/12/21 00:40:14;;;;;;;1.20;0.87;;;;;;;-141.84;85.35;22166.00;5049688;28;20201;-55
2023/12/21 00:42:42;;;;;;;1.07;0.97;;;;;;;-141.84;85.12;21930.09;5049686;28;20213;-56
2023/12/21 00:45:11;;;;;;;1.30;0.90;;;;;;;-141.84;86.73;23738.25;5049835;28;20317;-55
2023/12/21 00:47:40;;;;;;;2.00;0.80;;;;;;;-141.84;86.48;24189.94;5041560;28;20275;-54
2023/12/21 00:50:10;;;;;;;0.80;0.60;;;;;;;-141.84;84.85;21686.09;5048733;28;20256;-54
2023/12/21 00:52:38;;;;;;;0.80;0.70;;;;;;;-141.84;86.04;23026.28;5049111;28;20661;-56
2023/12/21 00:55:09;;;;;;;1.50;0.70;;;;;;;-141.84;86.16;23252.06;5050006;28;20205;-56
2023/12/21 00:57:38;;;;;;;1.17;0.70;;;;;;;-141.84;87.01;25219.59;5049848;28;20217;-53
2023/12/21 01:00:08;;;;;;;0.70;0.57;;;;;;;-141.84;86.49;23815.56;5049409;28;20229;-55
2023/12/21 01:02:38;;;;;;;0.70;0.70;;;;;;;-141.84;87.51;26599.69;5049316;28;20275;-52
2023/12/21 01:05:07;;;;;;;0.60;0.60;;;;;;;-141.84;87.62;27334.72;5048330;28;20225;-54
2023/12/21 01:07:36;;;;;;;0.80;0.80;;;;;;;-141.84;88.57;30804.03;5049094;28;20217;-52
2023/12/21 01:10:05;;;;;;;0.90;0.67;;;;;;;-141.84;89.89;38380.81;5049789;28;20189;-54
2023/12/21 01:12:35;;;;;;;0.70;0.60;;;;;;;-141.84;90.78;43918.63;5049433;28;20271;-49
2023/12/21 01:15:04;;;;;;;1.07;0.70;;;;;;;-141.84;91.69;48370.84;5041921;28;20221;-53
2023/12/21 01:17:33;;;;;;;1.07;0.70;;;;;;;-141.84;92.61;54664.88;5048639;28;20713;-55
2023/12/21 01:20:01;;;;;;;0.70;0.70;;;;;;;-141.84;93.74;59917.56;5049193;28;20241;-54
2023/12/21 01:22:30;;;;;;;0.57;0.57;;;;;;;-141.84;94.78;64387.81;5049647;28;20202;-55
2023/12/21 01:24:58;;;;;;;0.97;0.70;;;;;;;-141.84;94.99;65703.56;5049849;28;20194;-54
2023/12/21 01:27:28;;;;;;;0.87;0.70;;;;;;;-141.84;95.19;67019.72;5049515;28;20221;-52
2023/12/21 01:30:02;;;;;;;0.80;0.70;;;;;;;-141.84;95.91;70180.31;5049532;28;20225;-54
2023/12/21 01:32:30;;;;;;;0.80;0.60;;;;;;;-141.84;96.35;71761.53;5049571;28;20253;-56
2023/12/21 01:34:59;;;;;;;0.80;0.60;;;;;;;-141.84;95.83;69916.81;5045171;28;20233;-53
2023/12/21 01:37:28;;;;;;;0.97;0.80;;;;;;;-141.84;95.11;67809.63;5049407;28;20201;-55
2023/12/21 01:39:57;;;;;;;2.33;0.70;;;;;;;-141.84;93.42;60180.38;5048852;28;20697;-52
2023/12/21 01:42:25;;;;;;;0.70;0.70;;;;;;;-141.84;93.17;58603.75;5051851;28;20228;-53
2023/12/21 01:44:54;;;;;;;0.63;0.63;;;;;;;-141.84;93.48;59917.56;5052599;28;20227;-55
2023/12/21 01:47:24;;;;;;;0.50;0.50;;;;;;;-141.84;91.86;52303.44;5052701;28;20799;-55
2023/12/21 01:49:53;;;;;;;0.60;0.60;;;;;;;-141.84;89.46;39122.16;5052131;28;20316;-54
2023/12/21 01:52:22;;;;;;;1.27;0.80;;;;;;;-141.84;91.08;47846.78;5053357;28;20255;-55
2023/12/21 01:54:51;;;;;;;0.73;0.70;;;;;;;-141.84;89.00;36178.09;5052136;28;20655;-55
2023/12/21 01:57:20;;;;;;;0.80;0.70;;;;;;;-141.84;89.33;37249.69;5052618;28;20309;-53
2023/12/21 01:59:49;;;;;;;0.60;0.60;;;;;;;-141.84;89.16;35041.47;5052450;28;20659;-51
2023/12/21 02:02:17;;;;;;;0.60;0.60;;;;;;;-141.84;88.77;33511.56;5052622;28;20241;-55
2023/12/21 02:04:48;;;;;;;0.53;0.53;;;;;;;-141.84;88.45;32909.94;5051733;28;20198;-54
2023/12/21 02:07:18;;;;;;;0.80;0.60;;;;;;;-141.84;89.04;35127.16;5051502;28;20568;-55
2023/12/21 02:09:47;;;;;;;0.67;0.60;;;;;;;-141.84;89.53;39003.69;5050502;28;20227;-55
2023/12/21 02:12:15;;;;;;;0.77;0.73;;;;;;;-141.84;90.05;40758.47;5052276;28;20236;-53
2023/12/21 02:14:44;;;;;;;0.67;0.60;;;;;;;-141.84;90.49;43656.88;5052309;28;20252;-53
2023/12/21 02:17:19;;;;;;;0.80;0.70;;;;;;;-141.84;92.90;56765.13;5051864;28;20304;-54
2023/12/21 02:19:51;;;;;;;0.73;0.57;;;;;;;-141.84;93.81;60968.94;5051900;28;20227;-54
2023/12/21 02:22:20;;;;;;;0.73;0.50;;;;;;;-141.84;95.87;69389.94;5044701;28;20232;-55
2023/12/21 02:24:50;;;;;;;0.50;0.50;;;;;;;-141.84;97.87;77564.72;5051845;28;20225;-54
2023/12/21 02:27:18;;;;;;;1.07;0.53;;;;;;;-141.84;97.21;75717.34;5043163;28;20317;-53
2023/12/21 02:29:47;;;;;;;0.50;0.50;;;;;;;-141.84;97.32;76245.09;5043274;28;20255;-54
2023/12/21 02:32:15;;;;;;;1.73;0.70;;;;;;;-141.84;97.59;76772.88;5043113;28;20662;-55
2023/12/21 02:34:44;;;;;;;0.50;0.50;;;;;;;-141.84;96.49;74662.09;5046062;28;20265;-53
2023/12/21 02:37:13;;;;;;;1.13;0.60;;;;;;;-141.84;96.68;74398.31;5041373;28;20534;-53
2023/12/21 02:39:41;;;;;;;0.63;0.50;;;;;;;-141.84;97.23;76508.97;5038169;28;20226;-53
2023/12/21 02:42:11;;;;;;;0.60;0.60;;;;;;;-141.84;96.28;73079.69;5042086;28;20230;-54
2023/12/21 02:44:40;;;;;;;1.20;0.57;;;;;;;-141.84;94.99;68072.97;5042805;28;20283;-54
2023/12/21 02:47:08;;;;;;;1.03;0.70;;;;;;;-141.84;93.53;61231.81;5047618;28;20316;-53
2023/12/21 02:49:37;;;;;;;0.97;0.60;;;;;;;-141.84;93.90;64124.72;5047944;28;20270;-55
2023/12/21 02:52:06;;;;;;;0.87;0.50;;;;;;;-141.84;92.33;55714.84;5045595;28;20248;-53
2023/12/21 02:54:35;;;;;;;0.70;0.60;;;;;;;-141.84;92.98;58078.34;5037314;28;20279;-54
2023/12/21 02:57:03;;;;;;;0.50;0.40;;;;;;;-141.84;91.73;54140.00;5042296;28;20275;-55
2023/12/21 02:59:33;;;;;;;0.53;0.53;;;;;;;-141.84;92.91;58078.34;5042355;28;20225;-55
2023/12/21 03:02:02;;;;;;;0.60;0.40;;;;;;;-141.84;92.01;54140.00;5033839;28;20748;-50
2023/12/21 03:04:30;;;;;;;0.50;0.50;;;;;;;-141.84;92.75;57290.34;5034211;28;20225;-55
2023/12/21 03:06:59;;;;;;;1.13;0.50;;;;;;;-141.84;92.10;54140.00;5046480;28;20263;-54
2023/12/21 03:09:27;;;;;;;0.80;0.60;;;;;;;-141.84;92.29;55977.41;5033847;28;20276;-52
2023/12/21 03:11:56;;;;;;;0.50;0.50;;;;;;;-141.84;91.21;50729.94;5038308;28;20223;-51
2023/12/21 03:14:24;;;;;;;0.50;0.50;;;;;;;-141.84;92.19;55452.34;5048028;28;20259;-48
2023/12/21 03:16:54;;;;;;;0.50;0.50;;;;;;;-141.84;92.36;56765.13;5048881;28;20314;-51
2023/12/21 03:19:22;;;;;;;0.40;0.40;;;;;;;-141.84;92.46;57290.34;5048694;28;20257;-53
2023/12/21 03:21:51;;;;;;;1.33;0.50;;;;;;;-141.84;93.40;60968.94;5041520;28;20256;-54
2023/12/21 03:24:20;;;;;;;0.50;0.50;;;;;;;-141.84;91.03;48632.88;5041755;28;20248;-49
2023/12/21 03:26:48;;;;;;;0.40;0.40;;;;;;;-141.84;92.93;58341.03;5042288;28;20241;-51
2023/12/21 03:29:16;;;;;;;0.50;0.50;;;;;;;-141.84;91.83;54140.00;5033875;28;20325;-50
2023/12/21 03:31:45;;;;;;;0.60;0.50;;;;;;;-141.84;91.23;50467.75;5039579;28;20221;-52
2023/12/21 03:34:15;;;;;;;0.50;0.50;;;;;;;-141.84;90.42;46798.88;5046217;28;20651;-54
2023/12/21 03:36:44;;;;;;;0.40;0.40;;;;;;;-141.84;91.23;50992.13;5041703;28;20233;-52
2023/12/21 03:39:12;;;;;;;0.50;0.50;;;;;;;-141.84;90.23;44703.94;5047871;28;20252;-54
2023/12/21 03:41:41;;;;;;;0.50;0.50;;;;;;;-141.84;90.02;44442.13;5039340;28;20224;-55
2023/12/21 03:44:09;;;;;;;0.40;0.40;;;;;;;-141.84;90.60;46275.03;5041513;28;20250;-55
2023/12/21 03:46:38;;;;;;;0.40;0.40;;;;;;;-141.84;91.08;49681.28;5050111;28;20276;-53
2023/12/21 03:49:05;;;;;;;0.33;0.33;;;;;;;-141.84;90.31;46013.16;5041573;28;20564;-54
2023/12/21 03:51:35;;;;;;;0.70;0.40;;;;;;;-141.84;90.25;44703.94;5046934;28;20766;-55
2023/12/21 03:54:04;;;;;;;0.60;0.40;;;;;;;-141.84;90.46;47584.78;5035745;28;20247;-55
2023/12/21 03:56:32;;;;;;;0.40;0.40;;;;;;;-141.84;90.19;45489.41;5041848;28;20395;-56
2023/12/21 03:59:01;;;;;;;0.57;0.50;;;;;;;-141.84;90.13;45489.41;5039022;28;20300;-54
2023/12/21 04:01:30;;;;;;;0.40;0.40;;;;;;;-141.84;89.79;41087.44;5038990;28;20269;-54
2023/12/21 04:03:59;;;;;;;0.50;0.30;;;;;;;-141.84;89.06;39222.22;5040450;28;20194;-54
2023/12/21 04:06:27;;;;;;;0.80;0.37;;;;;;;-141.84;88.86;37145.59;5038671;28;20759;-53
2023/12/21 04:08:57;;;;;;;0.40;0.40;;;;;;;-141.84;89.12;36947.56;5038886;28;20241;-55
2023/12/21 04:11:26;;;;;;;0.40;0.40;;;;;;;-141.84;88.52;34625.28;5039584;28;20233;-52
2023/12/21 04:13:54;;;;;;;1.23;0.40;;;;;;;-141.84;87.72;31717.22;5037618;28;20276;-53
2023/12/21 04:16:23;;;;;;;0.40;0.40;;;;;;;-141.84;88.02;32010.78;5034664;28;20283;-54
2023/12/21 04:18:51;;;;;;;1.03;0.40;;;;;;;-141.84;88.77;35716.88;5039610;28;20778;-53
2023/12/21 04:21:20;;;;;;;0.60;0.47;;;;;;;-141.84;87.44;29952.22;5037403;28;20229;-51
2023/12/21 04:23:48;;;;;;;0.50;0.50;;;;;;;-141.84;88.29;32924.22;5037973;28;20217;-55
2023/12/21 04:26:22;;;;;;;0.40;0.40;;;;;;;-141.84;86.88;28287.81;5039283;28;20286;-55
2023/12/21 04:28:51;;;;;;;0.40;0.40;;;;;;;-141.84;87.13;28371.31;5041926;28;20301;-57
2023/12/21 04:31:20;;;;;;;0.40;0.40;;;;;;;-141.84;88.18;32754.97;5038916;28;20248;-53
2023/12/21 04:33:51;;;;;;;0.40;0.40;;;;;;;-141.84;88.70;35547.50;5037463;28;20244;-56
2023/12/21 04:36:21;;;;;;;0.43;0.30;;;;;;;-141.84;88.41;34682.41;5041020;28;20738;-54
2023/12/21 04:38:55;;;;;;;0.50;0.50;;;;;;;-141.84;88.18;32483.78;5040707;28;20225;-53
2023/12/21 04:41:26;;;;;;;0.30;0.30;;;;;;;-141.84;86.72;27530.19;5040331;28;20241;-55
2023/12/21 04:43:54;;;;;;;0.40;0.40;;;;;;;-141.84;87.17;28126.91;5038607;28;20315;-54
2023/12/21 04:46:23;;;;;;;0.53;0.50;;;;;;;-141.84;88.06;31162.75;5039130;28;20205;-54
2023/12/21 04:48:51;;;;;;;0.40;0.40;;;;;;;-141.84;88.10;31784.47;5039079;28;20224;-52
2023/12/21 04:51:20;;;;;;;0.40;0.40;;;;;;;-141.84;88.47;34755.84;5047705;28;20705;-55
2023/12/21 04:53:49;;;;;;;0.40;0.40;;;;;;;-141.84;87.22;28572.97;5033559;28;20847;-49
2023/12/21 04:56:17;;;;;;;0.30;0.30;;;;;;;-141.84;86.94;27603.50;5042756;28;20333;-54
2023/12/21 04:58:47;;;;;;;0.40;0.40;;;;;;;-141.84;88.15;32618.34;5038485;28;20202;-55
2023/12/21 05:01:16;;;;;;;0.30;0.30;;;;;;;-141.84;87.37;29359.31;5042109;28;20231;-56
2023/12/21 05:03:44;;;;;;;0.40;0.40;;;;;;;-141.84;86.87;27161.63;5035274;28;20230;-54
2023/12/21 05:06:13;;;;;;;0.40;0.30;;;;;;;-141.84;87.50;29970.56;5038591;28;20245;-57
2023/12/21 05:08:41;;;;;;;0.67;0.30;;;;;;;-141.84;88.38;34451.88;5039639;28;20225;-57
2023/12/21 05:11:10;;;;;;;0.40;0.40;;;;;;;-141.84;88.47;34525.31;5040126;28;20311;-55
2023/12/21 05:13:38;;;;;;;0.30;0.30;;;;;;;-141.84;88.79;36347.47;5037139;28;20197;-50
2023/12/21 05:16:09;;;;;;;0.60;0.30;;;;;;;-141.84;89.14;38787.19;5038677;28;20214;-54
2023/12/21 05:18:37;;;;;;;0.30;0.30;;;;;;;-141.84;89.39;41185.53;5052544;28;20225;-55
2023/12/21 05:21:09;;;;;;;0.30;0.30;;;;;;;-141.84;90.39;46275.03;5046437;28;20237;-51
2023/12/21 05:23:38;;;;;;;0.77;0.37;;;;;;;-141.84;90.91;48632.88;5043888;28;20233;-52
2023/12/21 05:26:11;;;;;;;0.30;0.30;;;;;;;-141.84;92.59;57027.72;5051139;28;20767;-56
2023/12/21 05:28:41;;;;;;;0.70;0.30;;;;;;;-141.84;92.55;58341.03;5047706;28;20225;-51
2023/12/21 05:31:12;;;;;;;0.70;0.30;;;;;;;-141.84;92.65;59129.22;5044287;28;20190;-55
2023/12/21 05:33:41;;;;;;;2.03;1.63;;;;;;;-141.84;93.19;61231.81;5044687;28;20421;-52
2023/12/21 05:36:19;;;;;;;1.90;1.60;;;;;;;-141.84;92.55;59654.75;5039526;28;20598;-54
2023/12/21 05:38:48;;;;;;;0.60;0.60;;;;;;;-141.84;93.28;61494.72;5042721;28;20253;-56
2023/12/21 05:41:17;;;;;;;0.50;0.50;;;;;;;-141.84;94.21;65703.56;5046389;28;20254;-53
2023/12/21 05:43:45;;;;;;;0.40;0.40;;;;;;;-141.84;93.50;63598.59;5041115;28;20754;-54
2023/12/21 05:46:15;;;;;;;0.50;0.50;;;;;;;-141.84;93.97;64914.06;5044004;28;20707;-53
2023/12/21 05:48:44;;;;;;;0.47;0.47;;;;;;;-141.84;93.83;64124.72;5043963;28;20245;-55
2023/12/21 05:51:13;;;;;;;0.40;0.40;;;;;;;-141.84;94.36;66493.19;5044550;28;20883;-55
2023/12/21 05:53:41;;;;;;;0.40;0.40;;;;;;;-141.84;95.20;70443.78;5043539;28;20691;-54
2023/12/21 05:56:10;;;;;;;0.60;0.60;;;;;;;-141.84;95.24;70443.78;5041118;28;20287;-54
2023/12/21 05:58:38;;;;;;;0.50;0.50;;;;;;;-141.84;95.50;72025.13;5041546;28;20208;-56
2023/12/21 06:01:08;;;;;;;1.20;1.10;;;;;;;-141.84;93.80;65703.56;5041985;28;20206;-56
2023/12/21 06:03:39;;;;;;;0.70;0.43;;;;;;;-141.84;93.47;64124.72;5041130;28;20225;-55
2023/12/21 06:06:07;;;;;;;0.87;0.40;;;;;;;-141.84;92.28;57815.66;5043117;28;20257;-56
2023/12/21 06:08:36;;;;;;;0.50;0.50;;;;;;;-141.84;92.10;56765.13;5042631;28;20228;-54
2023/12/21 06:11:05;;;;;;;0.53;0.53;;;;;;;-141.84;91.91;55714.84;5040351;28;20249;-54
2023/12/21 06:13:35;;;;;;;0.37;0.30;;;;;;;-141.84;91.85;55977.41;5041353;28;20225;-55
2023/12/21 06:16:04;;;;;;;0.50;0.50;;;;;;;-141.84;92.17;57815.66;5042658;28;20193;-55
2023/12/21 06:18:32;;;;;;;1.67;1.57;;;;;;;-141.84;91.53;53877.56;5045671;28;20225;-54
2023/12/21 06:21:03;;;;;;;0.30;0.30;;;;;;;-141.84;90.76;50992.13;5043572;28;20657;-55
2023/12/21 06:23:31;;;;;;;0.97;0.60;;;;;;;-141.84;90.28;48370.84;5041404;28;20222;-51
2023/12/21 06:26:00;;;;;;;0.40;0.40;;;;;;;-141.84;89.19;40380.47;5040729;28;20320;-51
2023/12/21 06:28:29;;;;;;;0.50;0.40;;;;;;;-141.84;89.33;39624.59;5039073;28;20343;-57
2023/12/21 06:30:57;;;;;;;0.73;0.40;;;;;;;-141.84;90.23;47584.78;5044209;28;20200;-54
2023/12/21 06:33:27;;;;;;;0.30;0.30;;;;;;;-141.84;90.00;47322.81;5045665;28;20291;-54
2023/12/21 06:35:56;;;;;;;0.37;0.30;;;;;;;-141.84;89.56;43656.88;5051913;28;20295;-54
2023/12/21 06:38:26;;;;;;;0.30;0.30;;;;;;;-141.84;89.97;44180.38;5043415;28;20668;-55
2023/12/21 06:40:54;;;;;;;0.40;0.40;;;;;;;-141.84;90.52;48894.97;5045947;28;20241;-54
2023/12/21 06:43:24;;;;;;;0.47;0.40;;;;;;;-141.84;90.45;49157.03;5040194;28;20905;-51
2023/12/21 06:45:52;;;;;;;0.40;0.40;;;;;;;-141.84;90.86;50729.94;5039869;28;20249;-52
2023/12/21 06:48:21;;;;;;;0.60;0.50;;;;;;;-141.84;90.65;50729.94;5041838;28;20236;-52
2023/12/21 06:50:50;;;;;;;0.50;0.40;;;;;;;-141.84;91.10;52565.75;5049491;28;20219;-53
2023/12/21 06:53:18;;;;;;;0.30;0.30;;;;;;;-141.84;91.71;55452.34;5034552;28;20320;-52
2023/12/21 06:55:48;;;;;;;0.30;0.30;;;;;;;-141.84;91.49;54140.00;5040308;28;20290;-52
2023/12/21 06:58:16;;;;;;;0.20;0.20;;;;;;;-141.84;90.40;48632.88;5043351;28;20637;-56
2023/12/21 07:00:45;;;;;;;0.30;0.30;;;;;;;-141.84;90.59;49157.03;5046078;28;20308;-55
2023/12/21 07:03:14;;;;;;;0.40;0.40;;;;;;;-141.84;92.29;57290.34;5051065;28;20224;-55
2023/12/21 07:05:42;;;;;;;0.40;0.40;;;;;;;-141.84;94.65;68599.69;5050932;28;20229;-51
2023/12/21 07:08:11;;;;;;;3.50;0.47;;;;;;;-141.84;97.01;76772.88;5040779;28;20236;-53
2023/12/21 07:10:39;;;;;;;0.60;0.60;;;;;;;-141.84;97.40;79412.97;5039613;28;20273;-53
2023/12/21 07:13:10;;;;;;;0.30;0.30;;;;;;;-141.84;98.71;83112.00;5040653;28;20198;-54
2023/12/21 07:15:38;;;;;;;0.70;0.50;;;;;;;-141.84;99.85;87608.25;5041169;28;20228;-54
2023/12/21 07:18:07;;;;;;;0.53;0.50;;;;;;;-141.84;100.00;91049.97;5049623;28;20225;-55
2023/12/21 07:20:35;;;;;;;1.53;0.30;;;;;;;-141.84;100.00;91049.97;5042198;28;20227;-53
2023/12/21 07:23:04;;;;;;;0.40;0.40;;;;;;;-141.84;100.00;92639.44;5044965;28;20777;-54
2023/12/21 07:25:33;;;;;;;0.60;0.40;;;;;;;-141.84;100.00;89725.88;5041785;28;20277;-50
2023/12/21 07:28:01;;;;;;;1.17;0.50;;;;;;;-141.84;100.00;88666.94;5041987;28;20564;-53
2023/12/21 07:30:31;;;;;;;0.50;0.50;;;;;;;-141.84;100.00;87608.25;5039523;28;20222;-56
2023/12/21 07:33:00;;;;;;;0.33;0.30;;;;;;;-141.84;99.42;86020.75;5041961;28;20230;-55
2023/12/21 07:35:30;;;;;;;1.27;0.50;;;;;;;-141.84;99.08;85491.75;5033684;28;20320;-53
2023/12/21 07:37:58;;;;;;;0.40;0.40;;;;;;;-141.84;99.25;85227.25;5037501;28;20681;-53
2023/12/21 07:40:27;;;;;;;0.30;0.30;;;;;;;-141.84;97.48;81262.06;5041705;28;20258;-53
2023/12/21 07:42:56;;;;;;;0.67;0.43;;;;;;;-141.84;97.78;81790.53;5047972;28;20225;-54
2023/12/21 07:45:25;;;;;;;0.63;0.43;;;;;;;-141.84;95.65;74398.31;5045022;28;20221;-51
2023/12/21 07:47:55;;;;;;;1.57;0.50;;;;;;;-141.84;95.62;73343.38;5043326;28;20229;-54
2023/12/21 07:50:23;;;;;;;0.60;0.50;;;;;;;-141.84;95.00;71497.94;5042943;28;20221;-54
2023/12/21 07:52:56;;;;;;;0.40;0.40;;;;;;;-141.84;95.49;73343.38;5043793;28;20241;-53
2023/12/21 07:55:24;;;;;;;1.53;0.40;;;;;;;-141.84;95.55;74134.56;5040233;28;20205;-52
2023/12/21 07:57:53;;;;;;;0.60;0.50;;;;;;;-141.84;96.42;76772.88;5037835;28;20217;-51
2023/12/21 08:00:21;;;;;;;0.60;0.40;;;;;;;-141.84;97.11;78884.81;5041189;28;20309;-53
2023/12/21 08:02:50;;;;;;;0.43;0.40;;;;;;;-141.84;96.96;78884.81;5042712;28;20233;-54
2023/12/21 08:05:22;;;;;;;0.50;0.43;;;;;;;-141.84;97.45;80205.34;5045279;28;20222;-55
2023/12/21 08:07:51;;;;;;;0.70;0.60;;;;;;;-141.84;97.10;79412.97;5037946;28;20232;-52
2023/12/21 08:10:20;;;;;;;0.50;0.40;;;;;;;-141.84;97.70;81262.06;5041094;28;20205;-53
2023/12/21 08:12:48;;;;;;;0.83;0.50;;;;;;;-141.84;98.62;83640.72;5040821;28;20228;-55
2023/12/21 08:15:17;;;;;;;0.77;0.53;;;;;;;-141.84;97.30;80469.50;5040751;28;20225;-54
2023/12/21 08:17:51;;;;;;;0.77;0.50;;;;;;;-141.84;98.03;82583.34;5037847;28;20229;-52
2023/12/21 08:20:20;;;;;;;0.83;0.60;;;;;;;-141.84;98.34;83376.34;5044866;28;20221;-55
2023/12/21 08:22:49;;;;;;;0.50;0.50;;;;;;;-141.84;98.74;84433.91;5047436;28;20709;-53
2023/12/21 08:25:18;;;;;;;0.80;0.50;;;;;;;-141.84;99.51;87079.03;5038681;28;20213;-53
2023/12/21 08:27:47;;;;;;;0.80;0.60;;;;;;;-141.84;98.69;85756.25;5041581;28;20605;-53
2023/12/21 08:30:15;;;;;;;0.83;0.60;;;;;;;-141.84;97.39;80997.84;5040044;28;20232;-58
2023/12/21 08:32:46;;;;;;;1.33;0.70;;;;;;;-141.84;97.29;80733.66;5041294;28;20221;-55
2023/12/21 08:35:15;;;;;;;0.70;0.70;;;;;;;-141.84;96.39;77828.72;5047278;28;20236;-56
2023/12/21 08:37:47;;;;;;;0.63;0.50;;;;;;;-141.84;95.68;73870.81;5047422;28;20232;-56
2023/12/21 08:40:16;;;;;;;1.23;0.50;;;;;;;-141.84;94.59;70970.84;5041619;28;20585;-57
2023/12/21 08:42:45;;;;;;;0.43;0.43;;;;;;;-141.84;94.01;68072.97;5040282;28;20633;-57
2023/12/21 08:45:14;;;;;;;0.30;0.30;;;;;;;-141.84;93.06;63598.59;5037915;28;20426;-54
2023/12/21 08:47:42;;;;;;;0.57;0.40;;;;;;;-141.84;93.88;67019.72;5037279;28;20242;-57
2023/12/21 08:50:12;;;;;;;1.27;0.40;;;;;;;-141.84;92.96;64124.72;5041120;28;20225;-53
2023/12/21 08:52:41;;;;;;;0.30;0.30;;;;;;;-141.84;91.35;56502.53;5044935;28;20228;-54
2023/12/21 08:55:12;;;;;;;0.47;0.40;;;;;;;-141.84;91.68;57290.34;5048957;28;20205;-53
2023/12/21 08:57:40;;;;;;;0.40;0.40;;;;;;;-141.84;90.22;51516.59;5036494;28;20221;-53
2023/12/21 09:00:12;;;;;;;0.30;0.30;;;;;;;-141.84;89.50;46798.88;5040256;28;20635;-53
2023/12/21 09:02:42;;;;;;;0.50;0.50;;;;;;;-141.84;89.37;43656.88;5043508;28;20312;-54
2023/12/21 09:05:12;;;;;;;0.50;0.50;;;;;;;-141.84;89.47;45227.56;5037191;28;20236;-56
2023/12/21 09:07:41;;;;;;;0.30;0.30;;;;;;;-141.84;87.76;34064.31;5044250;28;20194;-55
2023/12/21 09:10:11;;;;;;;0.50;0.50;;;;;;;-141.84;87.56;34033.69;5044547;28;20680;-55
2023/12/21 09:12:40;;;;;;;0.60;0.40;;;;;;;-141.84;89.25;42871.75;5043977;28;20285;-54
2023/12/21 09:15:09;;;;;;;0.60;0.57;;;;;;;-141.84;88.79;40057.69;5044499;28;20903;-54
2023/12/21 09:17:38;;;;;;;0.40;0.40;;;;;;;-141.84;87.63;33338.22;5042061;28;20237;-53
2023/12/21 09:20:09;;;;;;;0.60;0.60;;;;;;;-141.84;88.38;37727.41;5042048;28;20242;-58
2023/12/21 09:22:38;;;;;;;0.40;0.40;;;;;;;-141.84;86.46;27825.50;5049096;28;20324;-55
2023/12/21 09:25:07;;;;;;;0.57;0.40;;;;;;;-141.84;86.41;27735.88;5042443;28;20214;-53
2023/12/21 09:27:37;;;;;;;0.40;0.40;;;;;;;-141.84;86.71;28632.03;5041633;28;20313;-54
2023/12/21 09:30:07;;;;;;;0.33;0.33;;;;;;;-141.84;85.65;25431.25;5041887;28;20694;-53
2023/12/21 09:32:35;;;;;;;0.20;0.20;;;;;;;-141.84;85.62;25557.44;5041957;28;20225;-54
2023/12/21 09:35:05;;;;;;;0.60;0.40;;;;;;;-141.84;86.17;26884.72;5042583;28;20248;-53
2023/12/21 09:37:35;;;;;;;0.67;0.30;;;;;;;-141.84;83.84;22222.94;5049668;28;20566;-55
2023/12/21 09:40:06;;;;;;;0.30;0.30;;;;;;;-141.84;83.87;22001.28;5041817;28;20194;-55
2023/12/21 09:42:43;;;;;;;1.47;0.40;;;;;;;-141.84;84.23;22403.94;5040543;28;20226;-52
2023/12/21 09:45:12;;;;;;;0.40;0.40;;;;;;;-141.84;83.77;21736.94;5041274;28;20221;-53
2023/12/21 09:47:42;;;;;;;0.93;0.40;;;;;;;-141.84;85.66;25187.03;5041393;28;20309;-51
2023/12/21 09:50:14;;;;;;;0.40;0.40;;;;;;;-141.84;86.54;28666.66;5045392;28;20229;-54
2023/12/21 09:52:44;;;;;;;0.50;0.40;;;;;;;-141.84;87.58;30846.84;5041585;28;20252;-55
2023/12/21 09:55:15;;;;;;;0.30;0.30;;;;;;;-141.84;86.73;28640.19;5050149;28;20233;-53
2023/12/21 09:57:45;;;;;;;1.93;0.33;;;;;;;-141.84;85.98;26304.50;5036378;28;20236;-55
2023/12/21 10:00:15;;;;;;;0.33;0.30;;;;;;;-141.84;86.97;29326.72;5043928;28;20221;-55
2023/12/21 10:02:43;;;;;;;0.30;0.30;;;;;;;-141.84;83.80;21893.50;5041862;28;20320;-52
2023/12/21 10:05:12;;;;;;;0.60;0.50;;;;;;;-141.84;83.18;21295.72;5037462;28;20272;-56
2023/12/21 10:07:42;;;;;;;0.30;0.30;;;;;;;-141.84;83.63;21497.00;5043591;28;20194;-56
2023/12/21 10:10:11;;;;;;;0.30;0.30;;;;;;;-141.84;84.43;22951.03;5042177;28;20185;-54
2023/12/21 10:12:42;;;;;;;0.40;0.40;;;;;;;-141.84;87.02;29357.25;5041004;28;20280;-55
2023/12/21 10:15:13;;;;;;;1.00;0.40;;;;;;;-141.84;87.81;33538.06;5040987;28;20248;-56
2023/12/21 10:17:42;;;;;;;0.83;0.60;;;;;;;-141.84;91.80;55977.41;5042814;28;20222;-55
2023/12/21 10:20:12;;;;;;;0.40;0.40;;;;;;;-141.84;93.44;64914.06;5041035;28;20248;-52
2023/12/21 10:22:43;;;;;;;0.50;0.50;;;;;;;-141.84;94.51;68863.09;5049068;28;20223;-54
2023/12/21 10:25:13;;;;;;;0.50;0.40;;;;;;;-141.84;96.55;77036.81;5041645;28;20214;-55
2023/12/21 10:27:52;;;;;;;0.37;0.37;;;;;;;-141.84;96.51;77300.78;5040601;28;20301;-56
2023/12/21 10:30:23;;;;;;;0.50;0.50;;;;;;;-141.84;99.41;86549.84;5043079;28;20268;-53
2023/12/21 10:32:53;;;;;;;0.30;0.30;;;;;;;-141.84;99.46;87343.63;5042907;28;20883;-55
2023/12/21 10:35:26;;;;;;;1.23;0.50;;;;;;;-141.84;99.70;87608.25;5040793;28;20221;-53
2023/12/21 10:37:55;;;;;;;0.50;0.50;;;;;;;-141.84;100.00;93964.47;5040480;28;20313;-54
2023/12/21 10:40:24;;;;;;;0.57;0.57;;;;;;;-141.84;100.00;95820.25;5042516;28;20201;-53
2023/12/21 10:42:53;;;;;;;1.90;0.60;;;;;;;-141.84;100.00;101127.16;5040250;28;20226;-56
2023/12/21 10:45:24;;;;;;;0.40;0.40;;;;;;;-141.84;100.00;104314.66;5037600;28;20255;-55
2023/12/21 10:48:07;;;;;;;0.60;0.60;;;;;;;-141.84;100.00;107504.66;5048655;28;20244;-56
2023/12/21 10:50:38;;;;;;;0.50;0.50;;;;;;;-141.84;100.00;108036.56;5045721;28;20219;-55
2023/12/21 10:53:10;;;;;;;0.83;0.60;;;;;;;-141.84;100.00;112028.13;5036168;28;20236;-56
2023/12/21 10:55:40;;;;;;;2.23;0.57;;;;;;;-141.84;100.00;114158.53;5042581;28;20208;-56
2023/12/21 10:58:09;;;;;;;2.00;0.60;;;;;;;-141.84;100.00;115757.06;5042908;28;20192;-53
2023/12/21 11:00:41;;;;;;;1.70;0.70;;;;;;;-141.84;100.00;116556.59;5040557;28;20217;-52
2023/12/21 11:03:16;;;;;;;0.60;0.53;;;;;;;-141.84;100.00;115757.06;5039906;28;20222;-54
2023/12/21 11:05:45;;;;;;;1.07;0.80;;;;;;;-141.84;100.00;115490.59;5041693;28;20232;-56
2023/12/21 11:08:14;;;;;;;0.73;0.60;;;;;;;-141.84;100.00;114691.31;5039634;28;20783;-55
2023/12/21 11:10:44;;;;;;;1.67;0.60;;;;;;;-141.84;100.00;113359.50;5032698;28;20275;-58
2023/12/21 11:13:13;;;;;;;2.30;0.70;;;;;;;-141.84;100.00;113359.50;5049067;28;20202;-54
2023/12/21 11:15:44;;;;;;;1.03;0.50;;;;;;;-141.84;100.00;112826.88;5042511;28;20220;-57
2023/12/21 11:18:18;;;;;;;0.50;0.50;;;;;;;-141.84;100.00;112560.63;5047891;28;20308;-56
2023/12/21 11:20:51;;;;;;;1.50;0.40;;;;;;;-141.84;100.00;112560.63;5039390;28;20226;-54
2023/12/21 11:23:23;;;;;;;0.70;0.70;;;;;;;-141.84;100.00;111495.69;5042848;28;20708;-56
2023/12/21 11:25:59;;;;;;;0.40;0.40;;;;;;;-141.84;100.00;109366.66;5040254;28;20240;-55